.
WxDataArchive / Data Records for 2006-11-02
2006-11-01 November 2006 2006-11-03

Data Records for Thursday, 02 November 2006

Time	Temp	Chill	HIndex	Humid	Dewpt	 Wind 	HiWind	WindDir	Rain 	Barom 
-----	----	-----	------	-----	-----	------	------	-------	-----	----- 
00:00	31.8	31.8	31.8	54	17.1	1	3	270	0.00	30.139 
00:05	31.9	31.9	31.9	54	17.2	1	3	248	0.00	30.139 
00:10	31.9	31.9	31.9	54	17.2	1	2	248	0.00	30.139 
00:15	31.8	31.8	31.8	54	17.1	1	4	248	0.00	30.139 
00:20	31.8	31.8	31.8	54	17.1	1	4	248	0.00	30.139 
00:25	31.8	31.8	31.8	54	17.1	1	4	248	0.00	30.139 
00:30	31.6	31.6	31.6	55	17.3	1	3	248	0.00	30.139 
00:35	31.6	31.6	31.6	55	17.3	1	3	248	0.00	30.139 
00:40	31.5	31.5	31.5	55	17.2	0	2	248	0.00	30.139 
00:45	31.6	31.6	31.6	55	17.3	1	3	248	0.00	30.142 
00:50	31.8	31.8	31.8	55	17.5	1	5	248	0.00	30.142 
00:55	31.8	31.8	31.8	55	17.5	1	3	248	0.00	30.142 
01:00	31.9	31.9	31.9	55	17.6	1	4	248	0.00	30.141 
01:05	31.9	31.9	31.9	55	17.6	2	4	248	0.00	30.141 
01:10	31.9	31.9	31.9	56	18.0	1	4	248	0.00	30.141 
01:15	31.9	31.9	31.9	55	17.6	1	5	248	0.00	30.140 
01:20	31.9	31.9	31.9	56	18.0	2	6	248	0.00	30.140 
01:25	31.9	31.9	31.9	56	18.0	2	7	248	0.00	30.140 
01:30	31.8	31.8	31.8	57	18.3	1	3	270	0.00	30.139 
01:35	31.6	31.6	31.6	57	18.1	1	4	270	0.00	30.139 
01:40	31.5	31.5	31.5	57	18.0	2	4	248	0.00	30.139 
01:45	31.5	31.5	31.5	57	18.0	2	5	248	0.00	30.135 
01:50	31.3	31.3	31.3	57	17.9	2	4	248	0.00	30.135 
01:55	31.3	31.3	31.3	58	18.3	1	6	248	0.00	30.135 
02:00	31.0	31.0	31.0	58	18.0	1	5	270	0.00	30.133 
02:05	30.9	30.9	30.9	59	18.3	1	6	248	0.00	30.133 
02:10	30.7	30.7	30.7	59	18.1	1	3	248	0.00	30.133 
02:15	30.7	30.7	30.7	59	18.1	1	6	248	0.00	30.134 
02:20	30.6	30.6	30.6	59	18.0	2	4	248	0.00	30.134 
02:25	30.6	30.6	30.6	59	18.0	1	3	248	0.00	30.134 
02:30	30.4	30.4	30.4	60	18.2	1	6	248	0.00	30.135 
02:35	30.3	30.3	30.3	60	18.1	1	4	248	0.00	30.135 
02:40	30.1	30.1	30.1	60	17.9	1	3	248	0.00	30.135 
02:45	30.1	30.1	30.1	60	17.9	1	2	248	0.00	30.133 
02:50	30.0	30.0	30.0	61	18.2	0	2	248	0.00	30.133 
02:55	29.8	29.8	29.8	61	18.0	1	3	248	0.00	30.133 
03:00	29.8	29.8	29.8	61	18.0	1	3	248	0.00	30.132 
03:05	29.8	29.8	29.8	61	18.0	1	4	248	0.00	30.132 
03:10	29.8	29.8	29.8	61	18.0	1	4	248	0.00	30.132 
03:15	29.8	29.8	29.8	61	18.0	1	3	248	0.00	30.134 
03:20	29.8	29.8	29.8	60	17.6	1	4	248	0.00	30.134 
03:25	29.8	29.8	29.8	60	17.6	1	3	248	0.00	30.134 
03:30	30.0	30.0	30.0	59	17.4	1	4	270	0.00	30.133 
03:35	30.0	30.0	30.0	59	17.4	2	4	248	0.00	30.133 
03:40	30.0	30.0	30.0	59	17.4	1	3	248	0.00	30.133 
03:45	30.0	30.0	30.0	59	17.4	1	4	248	0.00	30.133 
03:50	29.8	29.8	29.8	60	17.6	1	4	248	0.00	30.133 
03:55	29.7	29.7	29.7	61	17.9	1	3	248	0.00	30.133 
04:00	29.5	29.5	29.5	61	17.7	2	4	248	0.00	30.132 
04:05	29.5	29.5	29.5	62	18.1	1	4	248	0.00	30.132 
04:10	29.4	29.4	29.4	62	18.0	1	6	248	0.00	30.132 
04:15	29.3	29.3	29.3	63	18.3	1	5	248	0.00	30.134 
04:20	29.1	29.1	29.1	63	18.1	1	3	248	0.00	30.134 
04:25	29.1	29.1	29.1	64	18.5	1	6	248	0.00	30.134 
04:30	29.0	29.0	29.0	64	18.4	1	3	248	0.00	30.133 
04:35	29.0	29.0	29.0	64	18.4	1	5	248	0.00	30.133 
04:40	28.8	28.8	28.8	65	18.5	2	5	248	0.00	30.133 
04:45	28.8	28.8	28.8	65	18.5	1	5	248	0.00	30.134 
04:50	28.7	28.7	28.7	65	18.4	1	3	248	0.00	30.134 
04:55	28.5	28.5	28.5	65	18.3	1	6	248	0.00	30.134 
05:00	28.5	28.5	28.5	65	18.3	1	3	270	0.00	30.135 
05:05	28.4	28.4	28.4	65	18.2	1	3	248	0.00	30.135 
05:10	28.4	28.4	28.4	66	18.5	1	2	248	0.00	30.135 
05:15	28.2	28.2	28.2	66	18.3	1	3	248	0.00	30.141 
05:20	28.2	28.2	28.2	66	18.3	1	5	248	0.00	30.141 
05:25	28.2	28.2	28.2	66	18.3	1	3	248	0.00	30.141 
05:30	28.2	28.2	28.2	66	18.3	1	3	248	0.00	30.144 
05:35	28.1	28.1	28.1	66	18.2	1	4	248	0.00	30.144 
05:40	28.1	28.1	28.1	66	18.2	1	4	248	0.00	30.144 
05:45	28.1	28.1	28.1	66	18.2	1	3	248	0.00	30.150 
05:50	28.1	28.1	28.1	66	18.2	1	5	248	0.00	30.150 
05:55	27.9	27.9	27.9	66	18.0	1	5	248	0.00	30.150 
06:00	27.9	27.9	27.9	66	18.0	1	5	248	0.00	30.151 
06:05	27.9	27.9	27.9	66	18.0	2	4	248	0.00	30.151 
06:10	27.8	27.8	27.8	65	17.6	2	5	248	0.00	30.151 
06:15	27.8	27.8	27.8	66	17.9	1	6	248	0.00	30.155 
06:20	27.6	27.6	27.6	66	17.8	2	5	248	0.00	30.155 
06:25	27.6	27.6	27.6	66	17.8	1	3	248	0.00	30.155 
06:30	27.5	27.5	27.5	66	17.7	1	5	270	0.00	30.157 
06:35	27.3	27.3	27.3	66	17.5	1	2	248	0.00	30.157 
06:40	27.2	27.2	27.2	67	17.7	2	4	248	0.00	30.157 
06:45	27.2	27.2	27.2	67	17.7	1	5	248	0.00	30.155 
06:50	27.0	27.0	27.0	67	17.5	1	4	248	0.00	30.155 
06:55	27.0	27.0	27.0	67	17.5	1	4	270	0.00	30.155 
07:00	26.9	26.9	26.9	67	17.4	1	4	248	0.00	30.154 
07:05	26.9	26.9	26.9	67	17.4	1	3	270	0.00	30.154 
07:10	26.9	26.9	26.9	66	17.1	1	4	248	0.00	30.154 
07:15	26.9	26.9	26.9	66	17.1	2	5	248	0.00	30.158 
07:20	26.9	26.9	26.9	66	17.1	2	5	248	0.00	30.158 
07:25	26.9	26.9	26.9	66	17.1	1	4	270	0.00	30.158 
07:30	26.9	26.9	26.9	65	16.7	2	5	270	0.00	30.163 
07:35	26.9	26.9	26.9	65	16.7	2	5	248	0.00	30.163 
07:40	27.0	27.0	27.0	65	16.8	2	9	248	0.00	30.163 
07:45	27.0	27.0	27.0	65	16.8	2	5	248	0.00	30.166 
07:50	27.0	27.0	27.0	64	16.5	2	10	248	0.00	30.166 
07:55	27.2	27.2	27.2	64	16.7	2	5	270	0.00	30.166 
08:00	27.3	27.3	27.3	64	16.8	2	7	248	0.00	30.174 
08:05	27.6	27.6	27.6	63	16.7	3	7	270	0.00	30.174 
08:10	27.8	27.8	27.8	62	16.5	2	6	270	0.00	30.174 
08:15	27.9	27.9	27.9	62	16.6	3	10	248	0.00	30.178 
08:20	28.2	28.2	28.2	61	16.5	3	10	270	0.00	30.178 
08:25	28.4	28.4	28.4	60	16.3	2	5	270	0.00	30.178 
08:30	28.7	28.7	28.7	59	16.2	3	9	270	0.00	30.184 
08:35	28.8	24.4	28.8	59	16.3	4	11	248	0.00	30.184 
08:40	29.1	24.7	29.1	58	16.2	4	10	270	0.00	30.184 
08:45	29.4	29.4	29.4	58	16.5	3	9	270	0.00	30.189 
08:50	29.7	29.7	29.7	58	16.8	2	5	270	0.00	30.189 
08:55	30.0	30.0	30.0	56	16.2	3	7	270	0.00	30.189 
09:00	30.3	30.3	30.3	55	16.1	3	9	270	0.00	30.194 
09:05	30.6	26.5	30.6	54	16.0	4	9	270	0.00	30.194 
09:10	30.9	30.9	30.9	55	16.7	3	9	270	0.00	30.194 
09:15	31.0	26.9	31.0	54	16.3	4	7	270	0.00	30.196 
09:20	31.5	31.5	31.5	55	17.2	3	7	270	0.00	30.196 
09:25	31.6	31.6	31.6	53	16.5	3	11	270	0.00	30.196 
09:30	31.9	28.0	31.9	54	17.2	4	9	270	0.00	30.201 
09:35	31.9	28.0	31.9	53	16.7	4	12	270	0.00	30.201 
09:40	32.4	28.5	32.4	52	16.8	4	9	270	0.00	30.201 
09:45	32.7	28.9	32.7	53	17.5	4	13	270	0.00	30.196 
09:50	33.1	29.3	33.1	52	17.4	4	12	270	0.00	30.196 
09:55	33.4	33.4	33.4	51	17.2	3	6	270	0.00	30.196 
10:00	33.4	29.7	33.4	51	17.2	4	9	270	0.00	30.200 
10:05	33.5	33.5	33.5	50	16.9	3	10	270	0.00	30.200 
10:10	33.5	33.5	33.5	50	16.9	3	7	270	0.00	30.200 
10:15	33.8	33.8	33.8	50	17.2	3	11	270	0.00	30.199 
10:20	34.1	28.7	34.1	49	17.0	6	14	270	0.00	30.199 
10:25	34.4	29.9	34.4	48	16.8	5	21	270	0.00	30.199 
10:30	34.0	30.4	34.0	48	16.4	4	10	270	0.00	30.201 
10:35	34.0	29.4	34.0	48	16.4	5	11	270	0.00	30.201 
10:40	34.4	30.8	34.4	47	16.3	4	7	292	0.00	30.201 
10:45	35.2	35.2	35.2	47	17.0	3	9	270	0.00	30.197 
10:50	35.0	31.5	35.0	46	16.3	4	10	292	0.00	30.197 
10:55	34.4	30.8	34.4	45	15.3	4	10	270	0.00	30.197 
11:00	34.1	30.5	34.1	45	15.0	4	10	292	0.00	30.202 
11:05	34.6	31.1	34.6	46	16.0	4	11	338	0.00	30.202 
11:10	35.5	35.5	35.5	44	15.8	3	12	270	0.00	30.202 
11:15	35.6	30.5	35.6	42	14.8	6	14	270	0.00	30.197 
11:20	35.5	32.1	35.5	43	15.2	4	11	270	0.00	30.197 
11:25	35.6	35.6	35.6	43	15.3	3	7	270	0.00	30.197 
11:30	35.8	32.5	35.8	42	15.0	4	14	270	0.00	30.199 
11:35	35.9	35.9	35.9	45	16.7	3	7	270	0.00	30.199 
11:40	36.5	32.4	36.5	42	15.6	5	12	270	0.00	30.199 
11:45	36.3	32.1	36.3	41	14.9	5	13	270	0.00	30.194 
11:50	36.2	31.2	36.2	42	15.3	6	17	270	0.00	30.194 
11:55	36.2	32.9	36.2	41	14.8	4	7	338	0.00	30.194 
12:00	36.3	32.1	36.3	43	16.0	5	13	270	0.00	30.190 
12:05	36.5	33.3	36.5	42	15.6	4	10	270	0.00	30.190 
12:10	36.5	36.5	36.5	41	15.1	3	6	270	0.00	30.190 
12:15	36.5	32.4	36.5	42	15.6	5	12	270	0.00	30.191 
12:20	37.0	33.9	37.0	44	17.1	4	10	270	0.00	30.191 
12:25	37.3	34.2	37.3	40	15.2	4	8	270	0.00	30.191 
12:30	37.0	33.9	37.0	39	14.4	4	7	270	0.00	30.184 
12:35	36.3	33.0	36.3	40	14.3	4	14	270	0.00	30.184 
12:40	36.6	36.6	36.6	40	14.6	3	8	270	0.00	30.184 
12:45	36.9	36.9	36.9	43	16.5	3	6	292	0.00	30.184 
12:50	36.5	36.5	36.5	40	14.5	3	9	270	0.00	30.184 
12:55	37.0	33.9	37.0	42	16.1	4	6	270	0.00	30.184 
13:00	36.9	36.9	36.9	41	15.4	3	7	270	0.00	30.184 
13:05	36.8	32.7	36.8	41	15.3	5	12	270	0.00	30.184 
13:10	36.5	33.3	36.5	42	15.6	4	9	270	0.00	30.184 
13:15	36.8	36.8	36.8	43	16.4	3	12	270	0.00	30.183 
13:20	37.9	37.9	37.9	40	15.8	3	7	270	0.00	30.183 
13:25	37.8	34.8	37.8	41	16.2	4	11	270	0.00	30.183 
13:30	36.9	33.7	36.9	42	16.0	4	6	270	0.00	30.184 
13:35	36.0	36.0	36.0	42	15.2	3	6	315	0.00	30.184 
13:40	35.8	35.8	35.8	45	16.6	3	7	270	0.00	30.184 
13:45	35.6	35.6	35.6	46	16.9	3	7	270	0.00	30.187 
13:50	35.8	35.8	35.8	46	17.1	3	6	270	0.00	30.187 
13:55	35.6	35.6	35.6	46	16.9	3	7	270	0.00	30.187 
14:00	35.3	35.3	35.3	47	17.1	3	7	292	0.00	30.194 
14:05	34.9	31.4	34.9	49	17.7	4	10	315	0.00	30.194 
14:10	34.6	34.6	34.6	51	18.4	3	6	270	0.00	30.194 
14:15	34.6	34.6	34.6	51	18.4	2	6	270	0.00	30.204 
14:20	34.6	31.1	34.6	51	18.4	4	10	270	0.00	30.204 
14:25	35.0	31.5	35.0	49	17.8	4	12	270	0.00	30.204 
14:30	35.0	30.6	35.0	48	17.3	5	14	270	0.00	30.210 
14:35	34.4	29.9	34.4	49	17.2	5	12	270	0.00	30.210 
14:40	33.8	30.2	33.8	50	17.2	4	6	270	0.00	30.210 
14:45	33.8	30.2	33.8	51	17.6	4	9	270	0.00	30.217 
14:50	34.4	34.4	34.4	50	17.7	3	14	292	0.00	30.217 
14:55	34.3	30.7	34.3	48	16.7	4	7	270	0.00	30.217 
15:00	34.6	31.1	34.6	47	16.5	4	12	270	0.00	30.219 
15:05	34.7	34.7	34.7	47	16.6	3	8	270	0.00	30.219 
15:10	34.9	34.9	34.9	48	17.2	3	9	270	0.00	30.219 
15:15	34.7	34.7	34.7	47	16.6	3	6	270	0.00	30.223 
15:20	34.6	31.1	34.6	47	16.5	4	10	270	0.00	30.223 
15:25	34.7	34.7	34.7	47	16.6	3	5	270	0.00	30.223 
15:30	34.9	34.9	34.9	45	15.7	3	9	270	0.00	30.227 
15:35	34.1	30.5	34.1	45	15.0	4	7	292	0.00	30.227 
15:40	33.7	33.7	33.7	46	15.1	3	6	315	0.00	30.227 
15:45	33.5	33.5	33.5	48	15.9	3	6	292	0.00	30.242 
15:50	32.9	32.9	32.9	51	16.8	3	9	338	0.00	30.242 
15:55	32.7	32.7	32.7	53	17.5	3	6	315	0.00	30.242 
16:00	32.5	32.5	32.5	58	19.4	3	6	292	0.00	30.256 
16:05	31.3	31.3	31.3	68	22.0	3	9	315	0.00	30.256 
16:10	30.9	30.9	30.9	68	21.6	2	5	315	0.00	30.256 
16:15	31.0	31.0	31.0	67	21.3	2	6	248	0.00	30.268 
16:20	31.5	31.5	31.5	64	20.7	2	8	270	0.00	30.268 
16:25	31.9	31.9	31.9	61	20.0	3	9	270	0.00	30.268 
16:30	31.8	27.8	31.8	61	19.9	4	11	270	0.00	30.273 
16:35	31.8	31.8	31.8	61	19.9	2	6	270	0.00	30.273 
16:40	31.6	31.6	31.6	61	19.7	3	11	270	0.00	30.273 
16:45	31.3	27.3	31.3	64	20.6	4	16	270	0.00	30.285 
16:50	31.2	31.2	31.2	65	20.8	2	5	270	0.00	30.285 
16:55	31.0	31.0	31.0	65	20.6	2	7	315	0.00	30.285 
17:00	31.0	31.0	31.0	65	20.6	3	6	315	0.00	30.287 
17:05	30.7	30.7	30.7	66	20.7	3	5	315	0.00	30.287 
17:10	30.6	30.6	30.6	66	20.6	1	3	315	0.00	30.287 
17:15	30.7	30.7	30.7	64	20.0	1	4	315	0.00	30.291 
17:20	30.9	30.9	30.9	63	19.8	2	4	315	0.00	30.291 
17:25	30.7	30.7	30.7	64	20.0	1	4	315	0.00	30.291 
17:30	30.7	30.7	30.7	62	19.2	3	7	270	0.00	30.292 
17:35	30.6	30.6	30.6	62	19.2	2	5	270	0.00	30.292 
17:40	30.3	30.3	30.3	63	19.2	2	5	270	0.00	30.292 
17:45	30.0	30.0	30.0	64	19.3	2	5	270	0.00	30.301 
17:50	29.8	29.8	29.8	64	19.1	2	4	270	0.00	30.301 
17:55	29.8	29.8	29.8	65	19.5	1	3	270	0.00	30.301 
18:00	29.7	29.7	29.7	65	19.4	1	3	248	0.00	30.308 
18:05	29.7	29.7	29.7	65	19.4	1	3	292	0.00	30.308 
18:10	29.5	29.5	29.5	65	19.2	2	6	270	0.00	30.308 
18:15	29.5	29.5	29.5	66	19.6	2	4	270	0.00	30.321 
18:20	29.4	29.4	29.4	67	19.8	2	5	270	0.00	30.321 
18:25	29.3	29.3	29.3	67	19.7	1	3	292	0.00	30.321 
18:30	29.1	29.1	29.1	68	19.9	1	4	292	0.00	30.322 
18:35	29.0	29.0	29.0	69	20.1	0	4	248	0.00	30.322 
18:40	28.7	28.7	28.7	69	19.8	0	2	248	0.00	30.322 
18:45	28.7	28.7	28.7	69	19.8	1	2	248	0.00	30.324 
18:50	28.5	28.5	28.5	69	19.6	0	2	248	0.00	30.324 
18:55	28.5	28.5	28.5	69	19.6	1	3	248	0.00	30.324 
19:00	28.5	28.5	28.5	69	19.6	1	3	248	0.00	30.328 
19:05	28.5	28.5	28.5	68	19.3	1	3	248	0.00	30.328 
19:10	28.4	28.4	28.4	68	19.2	1	4	292	0.00	30.328 
19:15	28.4	28.4	28.4	68	19.2	1	3	248	0.00	30.335 
19:20	28.4	28.4	28.4	68	19.2	0	2	248	0.00	30.335 
19:25	28.2	28.2	28.2	68	19.0	1	3	248	0.00	30.335 
19:30	28.2	28.2	28.2	67	18.7	0	2	248	0.00	30.338 
19:35	28.1	28.1	28.1	67	18.6	0	2	248	0.00	30.338 
19:40	28.1	28.1	28.1	67	18.6	0	2	248	0.00	30.338 
19:45	28.1	28.1	28.1	67	18.6	0	2	248	0.00	30.341 
19:50	27.9	27.9	27.9	67	18.4	1	3	225	0.00	30.341 
19:55	27.9	27.9	27.9	67	18.4	0	2	248	0.00	30.341 
20:00	27.8	27.8	27.8	67	18.3	0	2	248	0.00	30.342 
20:05	27.8	27.8	27.8	66	17.9	1	4	248	0.00	30.342 
20:10	27.8	27.8	27.8	66	17.9	0	5	248	0.00	30.342 
20:15	27.8	27.8	27.8	66	17.9	0	2	248	0.00	30.337 
20:20	27.8	27.8	27.8	67	18.3	0	1	248	0.00	30.337 
20:25	27.6	27.6	27.6	67	18.1	0	2	248	0.00	30.337 
20:30	27.6	27.6	27.6	67	18.1	0	2	248	0.00	30.338 
20:35	27.5	27.5	27.5	67	18.0	0	3	248	0.00	30.338 
20:40	27.5	27.5	27.5	67	18.0	0	3	248	0.00	30.338 
20:45	27.5	27.5	27.5	66	17.7	0	3	248	0.00	30.337 
20:50	27.6	27.6	27.6	65	17.4	0	1	248	0.00	30.337 
20:55	27.6	27.6	27.6	65	17.4	0	1	248	0.00	30.337 
21:00	27.6	27.6	27.6	65	17.4	0	2	248	0.00	30.337 
21:05	27.6	27.6	27.6	64	17.0	0	1	248	0.00	30.337 
21:10	27.6	27.6	27.6	64	17.0	0	2	248	0.00	30.337 
21:15	27.5	27.5	27.5	64	16.9	0	1	248	0.00	30.337 
21:20	27.5	27.5	27.5	64	16.9	0	3	248	0.00	30.337 
21:25	27.3	27.3	27.3	63	16.4	1	3	248	0.00	30.337 
21:30	27.3	27.3	27.3	64	16.8	0	1	248	0.00	30.341 
21:35	27.2	27.2	27.2	63	16.3	0	2	248	0.00	30.341 
21:40	27.2	27.2	27.2	63	16.3	0	2	248	0.00	30.341 
21:45	27.0	27.0	27.0	63	16.1	0	1	248	0.00	30.345 
21:50	27.0	27.0	27.0	63	16.1	1	2	248	0.00	30.345 
21:55	27.0	27.0	27.0	63	16.1	0	2	248	0.00	30.345 
22:00	26.9	26.9	26.9	64	16.4	0	2	248	0.00	30.347 
22:05	26.7	26.7	26.7	63	15.8	0	1	248	0.00	30.347 
22:10	26.7	26.7	26.7	64	16.2	0	1	248	0.00	30.347 
22:15	26.6	26.6	26.6	63	15.7	0	2	248	0.00	30.347 
22:20	26.6	26.6	26.6	64	16.1	0	1	248	0.00	30.347 
22:25	26.4	26.4	26.4	64	15.9	0	1	248	0.00	30.347 
22:30	26.4	26.4	26.4	64	15.9	0	1	248	0.00	30.349 
22:35	26.3	26.3	26.3	64	15.8	0	1	248	0.00	30.349 
22:40	26.1	26.1	26.1	64	15.6	0	1	248	0.00	30.349 
22:45	26.1	26.1	26.1	64	15.6	0	2	248	0.00	30.350 
22:50	26.1	26.1	26.1	63	15.3	0	1	248	0.00	30.350 
22:55	26.1	26.1	26.1	63	15.3	0	1	248	0.00	30.350 
23:00	26.0	26.0	26.0	63	15.2	0	1	248	0.00	30.350 
23:05	26.1	26.1	26.1	62	14.9	1	4	248	0.00	30.350 
23:10	26.1	26.1	26.1	62	14.9	0	2	248	0.00	30.350 
23:15	26.1	26.1	26.1	62	14.9	0	2	248	0.00	30.347 
23:20	26.1	26.1	26.1	62	14.9	1	3	248	0.00	30.347 
23:25	26.1	26.1	26.1	62	14.9	0	2	248	0.00	30.347 
23:30	26.1	26.1	26.1	62	14.9	0	4	248	0.00	30.348 
23:35	26.0	26.0	26.0	62	14.8	0	1	248	0.00	30.348 
23:40	26.0	26.0	26.0	62	14.8	0	2	248	0.00	30.348 
23:45	26.0	26.0	26.0	61	14.4	0	2	248	0.00	30.350 
23:50	26.0	26.0	26.0	61	14.4	0	2	248	0.00	30.350 
23:55	26.0	26.0	26.0	61	14.4	0	2	248	0.00	30.350 

CoCoRaHS
IN-AL-39
A2 Web Hosting
Creative Commons License
GoDaddy
Look for:

loaded 2017-12-10 21:20:04 • last modified 2010-11-18 10:43:29
Privacy PolicyDisclaimer
• wx.awcolley.com is powered by PmWiki v.2002016 •
• all content (unless otherwise noted) © 2017 A W Colley